Terminal Aerodrome Forecast
Issued by NWS Upton, NY

Home | Current Version | Previous Version | Text Only | Print | Product List | Glossary On
Versions: 1 2 3 4 5 6 7 8 9 10 11 12 13 14 15 16 17 18 19 20 21 22 23 24 25 26 27 28 29 30 31
000
FTUS41 KOKX 010500 RRA
TAFJFK
TAF
KJFK 010544Z 0106/0212 20007KT P6SM BKN150
     FM011400 17010KT P6SM FEW060 BKN250
     FM011900 18013KT P6SM SCT060 BKN150
     FM020200 18008KT P6SM FEW060 BKN150
     FM020500 VRB05KT P6SM SCT050 BKN100
     FM021000 05009KT 6SM -SHRA BKN050=

USA.gov is the U.S. government's official web portal to all federal, state and local government web resources and services.